ΕΜΥ, Εθνική Μετεωρολογική Υπηρεσία - Δελτία Καιρού, Προγνώσεις

ΑΕΡΟΝΑΥΤΙΛΙΑ

GREEK AIRPORTS CODES

TAF LGNX 090400Z 0906/0915 02018KT 9999 FEW012 SCT025 TEMPO 0906/0915 03018G28KT=

EUROPEAN AIRPORTS CODES

LFPO 090630Z 13002KT CAVOK M04/M06 Q1032 NOSIG=